sensor_id;sensor_type;location;lat;lon;timestamp;pressure;altitude;pressure_sealevel;temperature;humidity
62952;BME280;52163;52.212;-1.002;2022-10-26T00:01:26;99534.06;;;13.83;92.17
62952;BME280;52163;52.212;-1.002;2022-10-26T00:03:54;99524.77;;;13.81;92.16
62952;BME280;52163;52.212;-1.002;2022-10-26T00:06:22;99528.52;;;13.79;92.11
62952;BME280;52163;52.212;-1.002;2022-10-26T00:08:54;99524.20;;;13.78;92.00
62952;BME280;52163;52.212;-1.002;2022-10-26T00:11:19;99517.73;;;13.77;92.26
62952;BME280;52163;52.212;-1.002;2022-10-26T00:13:46;99513.46;;;13.77;92.09
62952;BME280;52163;52.212;-1.002;2022-10-26T00:16:21;99508.11;;;13.77;92.38
62952;BME280;52163;52.212;-1.002;2022-10-26T00:18:47;99505.30;;;13.77;92.26
62952;BME280;52163;52.212;-1.002;2022-10-26T00:24:00;99497.47;;;13.77;92.24
62952;BME280;52163;52.212;-1.002;2022-10-26T00:26:25;99498.17;;;13.79;92.33
62952;BME280;52163;52.212;-1.002;2022-10-26T00:28:54;99492.16;;;13.81;92.12
62952;BME280;52163;52.212;-1.002;2022-10-26T00:31:22;99488.01;;;13.84;92.37
62952;BME280;52163;52.212;-1.002;2022-10-26T00:33:52;99488.84;;;13.86;92.14
62952;BME280;52163;52.212;-1.002;2022-10-26T00:36:19;99484.73;;;13.88;92.23
62952;BME280;52163;52.212;-1.002;2022-10-26T00:38:53;99482.48;;;13.90;92.27
62952;BME280;52163;52.212;-1.002;2022-10-26T00:41:25;99479.03;;;13.89;92.13
62952;BME280;52163;52.212;-1.002;2022-10-26T00:43:52;99483.27;;;13.89;92.12
62952;BME280;52163;52.212;-1.002;2022-10-26T00:46:25;99476.38;;;13.90;92.23
62952;BME280;52163;52.212;-1.002;2022-10-26T00:48:55;99471.79;;;13.92;92.14
62952;BME280;52163;52.212;-1.002;2022-10-26T00:51:26;99471.48;;;13.93;92.30
62952;BME280;52163;52.212;-1.002;2022-10-26T00:53:56;99470.05;;;13.96;92.29
62952;BME280;52163;52.212;-1.002;2022-10-26T00:56:23;99470.17;;;13.97;92.34
62952;BME280;52163;52.212;-1.002;2022-10-26T00:58:49;99468.96;;;13.96;92.31
62952;BME280;52163;52.212;-1.002;2022-10-26T01:01:15;99464.92;;;13.96;92.35
62952;BME280;52163;52.212;-1.002;2022-10-26T01:03:41;99467.95;;;13.95;92.47
62952;BME280;52163;52.212;-1.002;2022-10-26T01:06:07;99462.98;;;13.96;92.59
62952;BME280;52163;52.212;-1.002;2022-10-26T01:08:33;99463.52;;;13.97;92.57
62952;BME280;52163;52.212;-1.002;2022-10-26T01:10:59;99458.77;;;13.99;92.72
62952;BME280;52163;52.212;-1.002;2022-10-26T01:13:27;99459.10;;;14.01;92.64
62952;BME280;52163;52.212;-1.002;2022-10-26T01:18:57;99455.90;;;14.03;92.59
62952;BME280;52163;52.212;-1.002;2022-10-26T01:21:34;99455.30;;;14.04;92.78
62952;BME280;52163;52.212;-1.002;2022-10-26T01:27:01;99463.42;;;14.08;92.79
62952;BME280;52163;52.212;-1.002;2022-10-26T01:42:05;99448.87;;;14.19;92.65
62952;BME280;52163;52.212;-1.002;2022-10-26T01:44:19;99446.80;;;14.21;92.77
62952;BME280;52163;52.212;-1.002;2022-10-26T01:46:48;99448.08;;;14.22;92.63
62952;BME280;52163;52.212;-1.002;2022-10-26T01:49:17;99442.15;;;14.26;92.67
62952;BME280;52163;52.212;-1.002;2022-10-26T01:51:47;99443.52;;;14.28;92.64
62952;BME280;52163;52.212;-1.002;2022-10-26T01:54:12;99440.94;;;14.31;92.86
62952;BME280;52163;52.212;-1.002;2022-10-26T01:56:40;99439.58;;;14.34;92.72
62952;BME280;52163;52.212;-1.002;2022-10-26T02:07:03;99410.45;;;14.37;92.48
62952;BME280;52163;52.212;-1.002;2022-10-26T02:09:51;99400.98;;;14.38;92.47
62952;BME280;52163;52.212;-1.002;2022-10-26T02:14:56;99408.88;;;14.41;92.66
62952;BME280;52163;52.212;-1.002;2022-10-26T02:17:28;99404.29;;;14.43;92.65
62952;BME280;52163;52.212;-1.002;2022-10-26T02:20:03;99394.00;;;14.43;92.57
62952;BME280;52163;52.212;-1.002;2022-10-26T02:22:40;99378.39;;;14.41;92.44
62952;BME280;52163;52.212;-1.002;2022-10-26T02:25:11;99360.98;;;14.39;92.47
62952;BME280;52163;52.212;-1.002;2022-10-26T02:27:41;99372.11;;;14.37;92.51
62952;BME280;52163;52.212;-1.002;2022-10-26T02:30:09;99372.42;;;14.36;92.51
62952;BME280;52163;52.212;-1.002;2022-10-26T02:32:39;99375.80;;;14.34;92.77
62952;BME280;52163;52.212;-1.002;2022-10-26T02:35:07;99381.41;;;14.33;92.68
62952;BME280;52163;52.212;-1.002;2022-10-26T02:37:34;99392.23;;;14.33;92.92
62952;BME280;52163;52.212;-1.002;2022-10-26T02:40:05;99392.19;;;14.32;92.97
62952;BME280;52163;52.212;-1.002;2022-10-26T02:42:32;99393.45;;;14.32;92.82
62952;BME280;52163;52.212;-1.002;2022-10-26T02:45:02;99398.92;;;14.30;93.00
62952;BME280;52163;52.212;-1.002;2022-10-26T02:47:28;99399.23;;;14.29;93.11
62952;BME280;52163;52.212;-1.002;2022-10-26T02:49:54;99398.98;;;14.27;93.13
62952;BME280;52163;52.212;-1.002;2022-10-26T02:52:29;99391.10;;;14.28;93.51
62952;BME280;52163;52.212;-1.002;2022-10-26T02:55:02;99389.52;;;14.30;93.48
62952;BME280;52163;52.212;-1.002;2022-10-26T02:57:33;99383.35;;;14.33;93.63
62952;BME280;52163;52.212;-1.002;2022-10-26T03:00:09;99376.79;;;14.35;93.55
62952;BME280;52163;52.212;-1.002;2022-10-26T03:02:35;99372.98;;;14.37;93.45
62952;BME280;52163;52.212;-1.002;2022-10-26T03:05:28;99373.71;;;14.37;93.50
62952;BME280;52163;52.212;-1.002;2022-10-26T03:07:54;99369.52;;;14.35;93.20
62952;BME280;52163;52.212;-1.002;2022-10-26T03:10:21;99363.22;;;14.32;93.31
62952;BME280;52163;52.212;-1.002;2022-10-26T03:12:47;99358.91;;;14.29;93.32
62952;BME280;52163;52.212;-1.002;2022-10-26T03:15:12;99355.59;;;14.27;93.68
62952;BME280;52163;52.212;-1.002;2022-10-26T03:17:38;99353.00;;;14.25;93.76
62952;BME280;52163;52.212;-1.002;2022-10-26T03:20:04;99354.46;;;14.25;93.96
62952;BME280;52163;52.212;-1.002;2022-10-26T03:22:30;99359.42;;;14.25;94.00
62952;BME280;52163;52.212;-1.002;2022-10-26T03:24:55;99366.99;;;14.26;94.17
62952;BME280;52163;52.212;-1.002;2022-10-26T03:27:21;99362.20;;;14.28;94.39
62952;BME280;52163;52.212;-1.002;2022-10-26T03:29:47;99365.56;;;14.28;94.22
62952;BME280;52163;52.212;-1.002;2022-10-26T03:32:12;99365.02;;;14.28;94.34
62952;BME280;52163;52.212;-1.002;2022-10-26T03:34:38;99366.04;;;14.29;94.39
62952;BME280;52163;52.212;-1.002;2022-10-26T03:37:03;99364.69;;;14.30;94.52
62952;BME280;52163;52.212;-1.002;2022-10-26T03:39:28;99368.86;;;14.31;94.72
62952;BME280;52163;52.212;-1.002;2022-10-26T03:41:54;99371.43;;;14.33;94.66
62952;BME280;52163;52.212;-1.002;2022-10-26T03:44:20;99370.00;;;14.35;94.75
62952;BME280;52163;52.212;-1.002;2022-10-26T03:46:46;99371.27;;;14.37;94.55
62952;BME280;52163;52.212;-1.002;2022-10-26T03:49:11;99367.52;;;14.37;94.50
62952;BME280;52163;52.212;-1.002;2022-10-26T03:51:36;99364.15;;;14.37;94.58
62952;BME280;52163;52.212;-1.002;2022-10-26T03:54:02;99368.92;;;14.35;94.52
62952;BME280;52163;52.212;-1.002;2022-10-26T03:56:27;99365.09;;;14.35;94.66
62952;BME280;52163;52.212;-1.002;2022-10-26T03:58:53;99364.48;;;14.36;94.93
62952;BME280;52163;52.212;-1.002;2022-10-26T04:01:18;99364.82;;;14.37;95.10
62952;BME280;52163;52.212;-1.002;2022-10-26T04:03:44;99367.36;;;14.41;94.99
62952;BME280;52163;52.212;-1.002;2022-10-26T04:06:09;99366.78;;;14.45;95.39
62952;BME280;52163;52.212;-1.002;2022-10-26T04:08:34;99371.42;;;14.48;95.46
62952;BME280;52163;52.212;-1.002;2022-10-26T04:11:00;99370.33;;;14.50;95.63
62952;BME280;52163;52.212;-1.002;2022-10-26T04:13:25;99367.55;;;14.54;96.08
62952;BME280;52163;52.212;-1.002;2022-10-26T04:15:51;99370.38;;;14.56;96.02
62952;BME280;52163;52.212;-1.002;2022-10-26T04:18:16;99376.95;;;14.58;96.35
62952;BME280;52163;52.212;-1.002;2022-10-26T04:20:42;99387.27;;;14.58;96.29
62952;BME280;52163;52.212;-1.002;2022-10-26T04:23:12;99388.96;;;14.57;96.50
62952;BME280;52163;52.212;-1.002;2022-10-26T04:25:38;99389.66;;;14.55;96.37
62952;BME280;52163;52.212;-1.002;2022-10-26T04:28:04;99389.84;;;14.53;96.54
62952;BME280;52163;52.212;-1.002;2022-10-26T04:30:31;99383.69;;;14.50;96.70
62952;BME280;52163;52.212;-1.002;2022-10-26T04:32:57;99386.03;;;14.48;96.78
62952;BME280;52163;52.212;-1.002;2022-10-26T04:35:23;99393.67;;;14.46;96.98
62952;BME280;52163;52.212;-1.002;2022-10-26T04:37:48;99399.45;;;14.45;97.12
62952;BME280;52163;52.212;-1.002;2022-10-26T04:40:14;99399.30;;;14.45;97.43
62952;BME280;52163;52.212;-1.002;2022-10-26T04:42:44;99393.99;;;14.46;97.49
62952;BME280;52163;52.212;-1.002;2022-10-26T04:45:11;99390.38;;;14.47;97.50
62952;BME280;52163;52.212;-1.002;2022-10-26T04:47:38;99391.10;;;14.47;97.47
62952;BME280;52163;52.212;-1.002;2022-10-26T04:50:05;99390.89;;;14.44;97.20
62952;BME280;52163;52.212;-1.002;2022-10-26T04:52:30;99389.34;;;14.39;97.10
62952;BME280;52163;52.212;-1.002;2022-10-26T04:54:56;99395.37;;;14.33;97.15
62952;BME280;52163;52.212;-1.002;2022-10-26T04:57:21;99396.77;;;14.29;97.19
62952;BME280;52163;52.212;-1.002;2022-10-26T04:59:47;99401.63;;;14.24;97.34
62952;BME280;52163;52.212;-1.002;2022-10-26T05:02:12;99402.08;;;14.19;97.20
62952;BME280;52163;52.212;-1.002;2022-10-26T05:04:37;99402.36;;;14.15;97.60
62952;BME280;52163;52.212;-1.002;2022-10-26T05:07:03;99403.43;;;14.14;97.57
62952;BME280;52163;52.212;-1.002;2022-10-26T05:09:28;99401.28;;;14.12;97.81
62952;BME280;52163;52.212;-1.002;2022-10-26T05:11:54;99402.05;;;14.10;97.66
62952;BME280;52163;52.212;-1.002;2022-10-26T05:14:19;99409.06;;;14.06;97.82
62952;BME280;52163;52.212;-1.002;2022-10-26T05:16:44;99413.77;;;14.04;97.87
62952;BME280;52163;52.212;-1.002;2022-10-26T05:19:10;99422.89;;;14.01;98.12
62952;BME280;52163;52.212;-1.002;2022-10-26T05:21:35;99429.23;;;13.98;98.11
62952;BME280;52163;52.212;-1.002;2022-10-26T05:24:01;99430.14;;;13.95;98.17
62952;BME280;52163;52.212;-1.002;2022-10-26T05:26:26;99431.43;;;13.95;98.08
62952;BME280;52163;52.212;-1.002;2022-10-26T05:28:52;99433.34;;;13.95;98.30
62952;BME280;52163;52.212;-1.002;2022-10-26T05:31:18;99434.32;;;13.97;98.10
62952;BME280;52163;52.212;-1.002;2022-10-26T05:33:47;99435.36;;;13.99;98.21
62952;BME280;52163;52.212;-1.002;2022-10-26T05:36:13;99440.35;;;14.02;98.19
62952;BME280;52163;52.212;-1.002;2022-10-26T05:38:38;99440.46;;;14.05;98.15
62952;BME280;52163;52.212;-1.002;2022-10-26T05:41:04;99448.55;;;14.10;98.07
62952;BME280;52163;52.212;-1.002;2022-10-26T05:43:30;99450.95;;;14.12;97.64
62952;BME280;52163;52.212;-1.002;2022-10-26T05:45:55;99450.17;;;14.13;97.22
62952;BME280;52163;52.212;-1.002;2022-10-26T05:48:20;99449.88;;;14.13;96.43
62952;BME280;52163;52.212;-1.002;2022-10-26T05:50:47;99454.02;;;14.10;95.85
62952;BME280;52163;52.212;-1.002;2022-10-26T05:53:12;99453.83;;;14.06;95.29
62952;BME280;52163;52.212;-1.002;2022-10-26T05:55:38;99455.26;;;14.02;94.91
62952;BME280;52163;52.212;-1.002;2022-10-26T05:58:09;99449.56;;;13.97;94.75
62952;BME280;52163;52.212;-1.002;2022-10-26T06:00:35;99445.31;;;13.90;94.85
62952;BME280;52163;52.212;-1.002;2022-10-26T06:05:49;99445.70;;;13.78;94.95
62952;BME280;52163;52.212;-1.002;2022-10-26T06:08:16;99452.11;;;13.74;94.82
62952;BME280;52163;52.212;-1.002;2022-10-26T06:10:42;99455.24;;;13.69;94.87
62952;BME280;52163;52.212;-1.002;2022-10-26T06:13:08;99464.77;;;13.65;94.92
62952;BME280;52163;52.212;-1.002;2022-10-26T06:15:47;99469.47;;;13.62;94.93
62952;BME280;52163;52.212;-1.002;2022-10-26T06:18:28;99477.48;;;13.60;94.89
62952;BME280;52163;52.212;-1.002;2022-10-26T06:26:24;99473.84;;;13.57;94.67
62952;BME280;52163;52.212;-1.002;2022-10-26T06:31:23;99476.96;;;13.58;94.56
62952;BME280;52163;52.212;-1.002;2022-10-26T06:33:51;99474.04;;;13.59;94.65
62952;BME280;52163;52.212;-1.002;2022-10-26T06:36:24;99475.52;;;13.60;94.52
62952;BME280;52163;52.212;-1.002;2022-10-26T06:39:01;99471.73;;;13.61;94.49
62952;BME280;52163;52.212;-1.002;2022-10-26T06:41:30;99468.02;;;13.63;94.54
62952;BME280;52163;52.212;-1.002;2022-10-26T06:43:57;99470.88;;;13.62;94.47
62952;BME280;52163;52.212;-1.002;2022-10-26T06:46:35;99467.13;;;13.61;94.35
62952;BME280;52163;52.212;-1.002;2022-10-26T06:51:57;99476.50;;;13.55;94.28
62952;BME280;52163;52.212;-1.002;2022-10-26T06:54:52;99472.71;;;13.54;94.31
62952;BME280;52163;52.212;-1.002;2022-10-26T06:57:31;99462.55;;;13.53;94.46
62952;BME280;52163;52.212;-1.002;2022-10-26T07:00:02;99472.99;;;13.53;94.51
62952;BME280;52163;52.212;-1.002;2022-10-26T07:02:28;99482.84;;;13.52;94.53
62952;BME280;52163;52.212;-1.002;2022-10-26T07:04:53;99483.02;;;13.52;94.48
62952;BME280;52163;52.212;-1.002;2022-10-26T07:07:22;99484.60;;;13.52;94.59
62952;BME280;52163;52.212;-1.002;2022-10-26T07:09:48;99488.67;;;13.54;94.84
62952;BME280;52163;52.212;-1.002;2022-10-26T07:12:14;99495.73;;;13.59;94.76
62952;BME280;52163;52.212;-1.002;2022-10-26T07:14:40;99493.06;;;13.64;95.03
62952;BME280;52163;52.212;-1.002;2022-10-26T07:17:05;99494.94;;;13.72;95.17
62952;BME280;52163;52.212;-1.002;2022-10-26T07:19:30;99496.23;;;13.79;95.15
62952;BME280;52163;52.212;-1.002;2022-10-26T07:21:57;99498.40;;;13.88;95.01
62952;BME280;52163;52.212;-1.002;2022-10-26T07:24:26;99497.30;;;13.97;94.91
62952;BME280;52163;52.212;-1.002;2022-10-26T07:26:53;99495.90;;;14.03;94.78
62952;BME280;52163;52.212;-1.002;2022-10-26T07:29:19;99495.00;;;14.06;94.45
62952;BME280;52163;52.212;-1.002;2022-10-26T07:31:44;99495.05;;;14.10;94.28
62952;BME280;52163;52.212;-1.002;2022-10-26T07:34:10;99499.54;;;14.13;94.12
62952;BME280;52163;52.212;-1.002;2022-10-26T07:36:35;99495.59;;;14.17;94.18
62952;BME280;52163;52.212;-1.002;2022-10-26T07:39:05;99501.09;;;14.21;94.07
62952;BME280;52163;52.212;-1.002;2022-10-26T07:41:31;99496.38;;;14.25;93.90
62952;BME280;52163;52.212;-1.002;2022-10-26T07:43:56;99494.95;;;14.27;93.77
62952;BME280;52163;52.212;-1.002;2022-10-26T07:46:22;99498.04;;;14.30;93.64
62952;BME280;52163;52.212;-1.002;2022-10-26T07:48:48;99504.31;;;14.33;93.71
62952;BME280;52163;52.212;-1.002;2022-10-26T07:51:14;99506.98;;;14.37;93.62
62952;BME280;52163;52.212;-1.002;2022-10-26T07:53:39;99508.44;;;14.46;93.72
62952;BME280;52163;52.212;-1.002;2022-10-26T07:56:05;99519.42;;;14.60;93.75
62952;BME280;52163;52.212;-1.002;2022-10-26T07:58:31;99518.66;;;14.72;93.42
62952;BME280;52163;52.212;-1.002;2022-10-26T08:00:57;99520.36;;;14.81;93.37
62952;BME280;52163;52.212;-1.002;2022-10-26T08:03:29;99526.59;;;14.91;93.00
62952;BME280;52163;52.212;-1.002;2022-10-26T08:05:54;99528.23;;;15.00;92.83
62952;BME280;52163;52.212;-1.002;2022-10-26T08:08:20;99521.61;;;15.04;92.52
62952;BME280;52163;52.212;-1.002;2022-10-26T08:10:46;99529.44;;;15.04;92.23
62952;BME280;52163;52.212;-1.002;2022-10-26T08:13:12;99522.83;;;15.02;92.33
62952;BME280;52163;52.212;-1.002;2022-10-26T08:15:38;99533.41;;;15.01;92.51
62952;BME280;52163;52.212;-1.002;2022-10-26T08:18:03;99539.13;;;15.05;92.69
62952;BME280;52163;52.212;-1.002;2022-10-26T08:20:29;99540.38;;;15.10;92.81
62952;BME280;52163;52.212;-1.002;2022-10-26T08:22:55;99540.61;;;15.16;92.84
62952;BME280;52163;52.212;-1.002;2022-10-26T08:25:21;99532.27;;;15.17;92.82
62952;BME280;52163;52.212;-1.002;2022-10-26T08:27:46;99526.48;;;15.20;92.87
62952;BME280;52163;52.212;-1.002;2022-10-26T08:30:12;99526.92;;;15.30;92.90
62952;BME280;52163;52.212;-1.002;2022-10-26T08:32:37;99543.90;;;15.41;92.71
62952;BME280;52163;52.212;-1.002;2022-10-26T08:35:03;99548.67;;;15.49;92.45
62952;BME280;52163;52.212;-1.002;2022-10-26T08:37:29;99555.77;;;15.56;92.36
62952;BME280;52163;52.212;-1.002;2022-10-26T08:39:54;99557.95;;;15.61;92.16
62952;BME280;52163;52.212;-1.002;2022-10-26T08:42:34;99570.52;;;15.68;91.96
62952;BME280;52163;52.212;-1.002;2022-10-26T08:45:11;99569.45;;;15.74;91.69
62952;BME280;52163;52.212;-1.002;2022-10-26T08:47:43;99567.36;;;15.75;91.41
62952;BME280;52163;52.212;-1.002;2022-10-26T08:53:13;99568.73;;;15.75;91.38
62952;BME280;52163;52.212;-1.002;2022-10-26T08:56:10;99577.08;;;15.72;91.21
62952;BME280;52163;52.212;-1.002;2022-10-26T08:58:42;99580.70;;;15.67;91.44
62952;BME280;52163;52.212;-1.002;2022-10-26T09:01:11;99587.15;;;15.71;91.57
62952;BME280;52163;52.212;-1.002;2022-10-26T09:03:36;99586.19;;;15.75;91.41
62952;BME280;52163;52.212;-1.002;2022-10-26T09:25:38;99598.18;;;16.10;90.49
62952;BME280;52163;52.212;-1.002;2022-10-26T09:28:04;99601.52;;;16.12;90.49
62952;BME280;52163;52.212;-1.002;2022-10-26T09:30:33;99605.35;;;16.13;90.19
62952;BME280;52163;52.212;-1.002;2022-10-26T09:33:11;99612.48;;;16.17;89.83
62952;BME280;52163;52.212;-1.002;2022-10-26T09:35:55;99611.52;;;16.27;89.34
62952;BME280;52163;52.212;-1.002;2022-10-26T09:38:29;99624.38;;;16.30;88.99
62952;BME280;52163;52.212;-1.002;2022-10-26T09:43:47;99629.35;;;16.43;88.90
62952;BME280;52163;52.212;-1.002;2022-10-26T09:46:20;99638.58;;;16.58;88.55
62952;BME280;52163;52.212;-1.002;2022-10-26T09:48:48;99641.63;;;16.69;88.05
62952;BME280;52163;52.212;-1.002;2022-10-26T09:51:16;99643.02;;;16.71;87.45
62952;BME280;52163;52.212;-1.002;2022-10-26T09:53:42;99647.74;;;16.70;87.05
62952;BME280;52163;52.212;-1.002;2022-10-26T09:56:12;99648.19;;;16.76;87.20
62952;BME280;52163;52.212;-1.002;2022-10-26T09:58:49;99658.23;;;16.88;86.96
62952;BME280;52163;52.212;-1.002;2022-10-26T10:06:46;99654.71;;;17.24;83.07
62952;BME280;52163;52.212;-1.002;2022-10-26T10:09:22;99655.75;;;17.24;82.08
62952;BME280;52163;52.212;-1.002;2022-10-26T10:11:57;99654.89;;;17.22;81.13
62952;BME280;52163;52.212;-1.002;2022-10-26T10:16:55;99668.31;;;17.12;80.06
62952;BME280;52163;52.212;-1.002;2022-10-26T10:19:35;99671.73;;;17.08;79.53
62952;BME280;52163;52.212;-1.002;2022-10-26T10:24:55;99684.33;;;16.93;78.99
62952;BME280;52163;52.212;-1.002;2022-10-26T10:27:20;99686.02;;;16.85;79.02
62952;BME280;52163;52.212;-1.002;2022-10-26T10:29:52;99696.96;;;16.79;78.80
62952;BME280;52163;52.212;-1.002;2022-10-26T10:32:24;99704.57;;;16.76;78.95
62952;BME280;52163;52.212;-1.002;2022-10-26T10:34:53;99709.98;;;16.72;78.87
62952;BME280;52163;52.212;-1.002;2022-10-26T10:37:29;99720.41;;;16.69;78.52
62952;BME280;52163;52.212;-1.002;2022-10-26T10:40:02;99723.86;;;16.66;78.35
62952;BME280;52163;52.212;-1.002;2022-10-26T10:42:36;99725.52;;;16.66;78.02
62952;BME280;52163;52.212;-1.002;2022-10-26T10:45:05;99734.48;;;16.65;77.76
62952;BME280;52163;52.212;-1.002;2022-10-26T10:47:33;99741.35;;;16.66;77.45
62952;BME280;52163;52.212;-1.002;2022-10-26T10:50:05;99741.54;;;16.68;77.11
62952;BME280;52163;52.212;-1.002;2022-10-26T10:52:32;99744.95;;;16.69;76.66
62952;BME280;52163;52.212;-1.002;2022-10-26T11:00:31;99757.02;;;16.72;76.61
62952;BME280;52163;52.212;-1.002;2022-10-26T11:11:16;99782.40;;;16.97;75.39
62952;BME280;52163;52.212;-1.002;2022-10-26T11:16:15;99791.55;;;17.17;74.28
62952;BME280;52163;52.212;-1.002;2022-10-26T11:18:48;99792.55;;;17.32;73.80
62952;BME280;52163;52.212;-1.002;2022-10-26T11:21:25;99790.61;;;17.42;73.24
62952;BME280;52163;52.212;-1.002;2022-10-26T11:24:09;99792.64;;;17.56;73.11
62952;BME280;52163;52.212;-1.002;2022-10-26T11:26:45;99792.39;;;17.69;72.62
62952;BME280;52163;52.212;-1.002;2022-10-26T11:29:31;99796.42;;;17.80;72.02
62952;BME280;52163;52.212;-1.002;2022-10-26T11:32:15;99800.64;;;17.83;71.45
62952;BME280;52163;52.212;-1.002;2022-10-26T11:40:17;99811.02;;;18.02;69.07
62952;BME280;52163;52.212;-1.002;2022-10-26T11:42:59;99816.80;;;18.04;68.15
62952;BME280;52163;52.212;-1.002;2022-10-26T11:45:31;99822.77;;;17.95;67.99
62952;BME280;52163;52.212;-1.002;2022-10-26T11:48:22;99831.16;;;17.85;67.62
62952;BME280;52163;52.212;-1.002;2022-10-26T11:50:53;99830.41;;;17.69;67.17
62952;BME280;52163;52.212;-1.002;2022-10-26T11:53:28;99832.64;;;17.52;66.81
62952;BME280;52163;52.212;-1.002;2022-10-26T11:55:57;99841.50;;;17.37;66.79
62952;BME280;52163;52.212;-1.002;2022-10-26T11:58:25;99848.11;;;17.33;66.77
62952;BME280;52163;52.212;-1.002;2022-10-26T12:01:00;99847.17;;;17.40;66.78
62952;BME280;52163;52.212;-1.002;2022-10-26T12:03:28;99849.39;;;17.44;66.40
62952;BME280;52163;52.212;-1.002;2022-10-26T12:05:56;99851.09;;;17.48;66.78
62952;BME280;52163;52.212;-1.002;2022-10-26T12:08:42;99853.06;;;17.51;66.84
62952;BME280;52163;52.212;-1.002;2022-10-26T12:11:16;99853.03;;;17.55;66.99
62952;BME280;52163;52.212;-1.002;2022-10-26T12:21:55;99860.83;;;17.43;65.95
62952;BME280;52163;52.212;-1.002;2022-10-26T12:26:52;99868.91;;;17.27;66.43
62952;BME280;52163;52.212;-1.002;2022-10-26T12:31:53;99885.52;;;17.02;66.77
62952;BME280;52163;52.212;-1.002;2022-10-26T12:37:22;99893.23;;;16.85;66.91
62952;BME280;52163;52.212;-1.002;2022-10-26T12:39:52;99895.75;;;16.83;66.93
62952;BME280;52163;52.212;-1.002;2022-10-26T12:52:51;99898.47;;;17.22;67.67
62952;BME280;52163;52.212;-1.002;2022-10-26T13:08:55;99914.64;;;17.39;67.12
62952;BME280;52163;52.212;-1.002;2022-10-26T13:11:30;99914.83;;;17.46;67.32
62952;BME280;52163;52.212;-1.002;2022-10-26T13:14:00;99921.31;;;17.47;67.30
62952;BME280;52163;52.212;-1.002;2022-10-26T13:16:28;99923.55;;;17.48;67.32
62952;BME280;52163;52.212;-1.002;2022-10-26T13:18:54;99922.38;;;17.51;67.22
62952;BME280;52163;52.212;-1.002;2022-10-26T13:21:21;99915.46;;;17.63;66.82
62952;BME280;52163;52.212;-1.002;2022-10-26T13:26:25;99920.20;;;17.80;66.42
62952;BME280;52163;52.212;-1.002;2022-10-26T13:28:56;99926.14;;;17.80;66.44
62952;BME280;52163;52.212;-1.002;2022-10-26T13:33:56;99920.77;;;18.02;66.94
62952;BME280;52163;52.212;-1.002;2022-10-26T13:38:59;99924.43;;;18.20;66.34
62952;BME280;52163;52.212;-1.002;2022-10-26T13:41:35;99926.54;;;18.24;66.45
62952;BME280;52163;52.212;-1.002;2022-10-26T13:44:05;99930.14;;;18.36;66.42
62952;BME280;52163;52.212;-1.002;2022-10-26T13:46:35;99930.77;;;18.48;66.16
62952;BME280;52163;52.212;-1.002;2022-10-26T13:49:07;99926.54;;;18.52;65.78
62952;BME280;52163;52.212;-1.002;2022-10-26T13:51:43;99935.14;;;18.59;65.30
62952;BME280;52163;52.212;-1.002;2022-10-26T13:54:34;99931.77;;;18.63;64.71
62952;BME280;52163;52.212;-1.002;2022-10-26T13:57:03;99938.14;;;18.63;64.39
62952;BME280;52163;52.212;-1.002;2022-10-26T13:59:37;99946.09;;;18.64;64.55
62952;BME280;52163;52.212;-1.002;2022-10-26T14:02:15;99948.51;;;18.70;64.45
62952;BME280;52163;52.212;-1.002;2022-10-26T14:04:45;99950.79;;;18.71;63.90
62952;BME280;52163;52.212;-1.002;2022-10-26T14:07:17;99957.09;;;18.69;64.04
62952;BME280;52163;52.212;-1.002;2022-10-26T14:09:50;99960.78;;;18.64;64.15
62952;BME280;52163;52.212;-1.002;2022-10-26T14:12:16;99961.31;;;18.62;64.20
62952;BME280;52163;52.212;-1.002;2022-10-26T14:14:41;99963.33;;;18.58;64.33
62952;BME280;52163;52.212;-1.002;2022-10-26T14:17:17;99964.05;;;18.47;63.62
62952;BME280;52163;52.212;-1.002;2022-10-26T14:19:44;99961.80;;;18.35;63.24
62952;BME280;52163;52.212;-1.002;2022-10-26T14:22:19;99971.73;;;18.19;63.07
62952;BME280;52163;52.212;-1.002;2022-10-26T14:24:59;99973.14;;;18.03;63.04
62952;BME280;52163;52.212;-1.002;2022-10-26T14:27:30;99977.10;;;17.90;63.05
62952;BME280;52163;52.212;-1.002;2022-10-26T14:29:57;99979.98;;;17.79;63.41
62952;BME280;52163;52.212;-1.002;2022-10-26T14:32:27;99984.09;;;17.70;63.63
62952;BME280;52163;52.212;-1.002;2022-10-26T14:34:53;99993.00;;;17.61;63.50
62952;BME280;52163;52.212;-1.002;2022-10-26T14:37:44;99988.05;;;17.53;63.60
62952;BME280;52163;52.212;-1.002;2022-10-26T14:40:16;99991.70;;;17.45;63.77
62952;BME280;52163;52.212;-1.002;2022-10-26T14:42:44;99988.90;;;17.38;64.27
62952;BME280;52163;52.212;-1.002;2022-10-26T14:47:49;99997.88;;;17.27;64.36
62952;BME280;52163;52.212;-1.002;2022-10-26T14:50:19;100001.30;;;17.23;64.59
62952;BME280;52163;52.212;-1.002;2022-10-26T14:52:50;100002.53;;;17.18;64.82
62952;BME280;52163;52.212;-1.002;2022-10-26T14:55:18;100006.18;;;17.11;64.83
62952;BME280;52163;52.212;-1.002;2022-10-26T14:57:49;100012.05;;;17.06;64.89
62952;BME280;52163;52.212;-1.002;2022-10-26T15:00:21;100020.83;;;17.02;64.85
62952;BME280;52163;52.212;-1.002;2022-10-26T15:02:48;100023.56;;;16.97;64.84
62952;BME280;52163;52.212;-1.002;2022-10-26T15:07:52;100027.11;;;16.90;64.57
62952;BME280;52163;52.212;-1.002;2022-10-26T15:13:24;100031.68;;;16.80;64.49
62952;BME280;52163;52.212;-1.002;2022-10-26T15:15:55;100034.66;;;16.75;64.72
62952;BME280;52163;52.212;-1.002;2022-10-26T15:18:33;100038.63;;;16.69;65.07
62952;BME280;52163;52.212;-1.002;2022-10-26T15:20:59;100034.96;;;16.63;65.19
62952;BME280;52163;52.212;-1.002;2022-10-26T15:23:27;100043.27;;;16.55;65.31
62952;BME280;52163;52.212;-1.002;2022-10-26T15:25:56;100046.92;;;16.49;65.42
62952;BME280;52163;52.212;-1.002;2022-10-26T15:28:24;100049.88;;;16.44;65.60
62952;BME280;52163;52.212;-1.002;2022-10-26T15:31:23;100050.50;;;16.41;65.97
62952;BME280;52163;52.212;-1.002;2022-10-26T15:36:19;100050.83;;;16.35;66.28
62952;BME280;52163;52.212;-1.002;2022-10-26T15:38:46;100055.17;;;16.33;66.25
62952;BME280;52163;52.212;-1.002;2022-10-26T15:41:27;100051.75;;;16.29;66.22
62952;BME280;52163;52.212;-1.002;2022-10-26T15:43:56;100060.36;;;16.25;66.45